Time;durP1;ratioP1;P1;durP2;ratioP2;P2;SDS_P1;SDS_P2;PMS_P1;PMS_P2;Temp;Humidity;BMP_temperature;BMP_pressure;BME280_temperature;BME280_humidity;BME280_pressure;Samples;Min_cycle;Max_cycle;Signal;HPM_P1;HPM_P2
2023/01/28 00:01:38;;;;;;;10.35;6.47;;;;;;;3.24;100.00;102973.38;2616357;36;20061;-60
2023/01/28 00:04:07;;;;;;;11.13;6.40;;;;;;;3.26;100.00;102976.88;2615848;31;20027;-60
2023/01/28 00:06:35;;;;;;;11.57;6.37;;;;;;;3.34;100.00;102968.69;2615278;36;20049;-60
2023/01/28 00:09:04;;;;;;;11.27;6.82;;;;;;;3.60;100.00;102980.50;2616201;36;20275;-60
2023/01/28 00:11:32;;;;;;;10.67;6.20;;;;;;;3.49;100.00;102980.78;2615438;36;20035;-60
2023/01/28 00:14:03;;;;;;;9.63;5.33;;;;;;;3.53;100.00;102979.75;2616141;36;20150;-60
2023/01/28 00:16:32;;;;;;;9.60;5.90;;;;;;;3.51;100.00;102985.13;2615738;31;20271;-60
2023/01/28 00:19:00;;;;;;;9.93;6.15;;;;;;;3.47;100.00;102987.91;2616420;31;20447;-60
2023/01/28 00:21:29;;;;;;;9.75;6.65;;;;;;;3.60;100.00;102984.03;2615997;36;20031;-60
2023/01/28 00:23:58;;;;;;;11.50;6.25;;;;;;;3.46;100.00;102981.72;2616618;36;20050;-61
2023/01/28 00:26:27;;;;;;;10.55;6.47;;;;;;;3.45;100.00;102982.63;2616692;31;20037;-60
2023/01/28 00:28:55;;;;;;;10.18;6.03;;;;;;;3.28;100.00;102980.38;2615271;36;20030;-61
2023/01/28 00:31:28;;;;;;;12.25;6.75;;;;;;;3.31;100.00;102982.06;2616801;36;20026;-61
2023/01/28 00:33:58;;;;;;;10.25;6.15;;;;;;;3.39;100.00;102976.59;2615951;36;20416;-61
2023/01/28 00:36:28;;;;;;;11.90;6.97;;;;;;;3.33;100.00;102977.63;2616446;36;20049;-60
2023/01/28 00:38:58;;;;;;;12.88;7.50;;;;;;;3.31;100.00;102982.97;2615324;36;20027;-61
2023/01/28 00:41:29;;;;;;;12.63;6.60;;;;;;;3.34;100.00;102979.34;2616361;36;20022;-61
2023/01/28 00:43:58;;;;;;;11.10;6.65;;;;;;;3.35;100.00;102974.91;2615704;36;20057;-62
2023/01/28 00:46:29;;;;;;;10.90;6.60;;;;;;;3.39;100.00;102977.47;2615944;36;20034;-61
2023/01/28 00:48:58;;;;;;;10.52;6.07;;;;;;;3.51;100.00;102976.28;2615287;36;20035;-61
2023/01/28 00:51:26;;;;;;;10.50;6.57;;;;;;;3.38;100.00;102975.69;2616165;36;20411;-60
2023/01/28 00:53:55;;;;;;;11.20;6.40;;;;;;;3.40;100.00;102979.22;2616129;36;20033;-61
2023/01/28 00:56:23;;;;;;;11.00;6.47;;;;;;;3.45;100.00;102982.63;2615253;31;20038;-61
2023/01/28 00:58:52;;;;;;;10.80;6.60;;;;;;;3.46;100.00;102972.84;2615661;36;20027;-61
2023/01/28 01:01:23;;;;;;;10.35;6.07;;;;;;;3.53;100.00;102973.56;2616073;36;20053;-60
2023/01/28 01:03:56;;;;;;;10.60;6.20;;;;;;;3.30;100.00;102964.38;2614764;36;20037;-60
2023/01/28 01:06:26;;;;;;;10.95;6.28;;;;;;;3.41;100.00;102964.97;2613067;31;20030;-60
2023/01/28 01:08:54;;;;;;;12.30;6.30;;;;;;;3.40;100.00;102968.56;2614287;36;20419;-60
2023/01/28 01:11:23;;;;;;;9.63;6.53;;;;;;;3.40;100.00;102973.88;2615019;31;20071;-60
2023/01/28 01:13:53;;;;;;;10.95;6.80;;;;;;;3.31;100.00;102971.44;2614771;36;20820;-60
2023/01/28 01:16:23;;;;;;;10.35;6.32;;;;;;;3.44;100.00;102970.22;2614029;36;20027;-60
2023/01/28 01:18:55;;;;;;;9.90;6.30;;;;;;;3.40;100.00;102965.00;2615041;36;20054;-60
2023/01/28 01:21:27;;;;;;;10.00;6.28;;;;;;;3.35;100.00;102970.44;2613540;36;20048;-59
2023/01/28 01:23:56;;;;;;;11.80;6.93;;;;;;;3.21;100.00;102972.56;2614142;36;20121;-60
2023/01/28 01:26:26;;;;;;;9.52;5.88;;;;;;;3.29;100.00;102970.59;2613742;36;20041;-61
2023/01/28 01:29:00;;;;;;;10.68;6.57;;;;;;;3.25;100.00;102975.09;2614191;36;20057;-60
2023/01/28 01:31:29;;;;;;;9.10;5.97;;;;;;;3.20;100.00;102978.81;2616601;36;20551;-60
2023/01/28 01:34:00;;;;;;;11.03;6.73;;;;;;;3.14;100.00;102980.69;2616488;36;20423;-60
2023/01/28 01:36:28;;;;;;;11.73;6.18;;;;;;;3.13;100.00;102976.28;2616273;36;20434;-60
2023/01/28 01:38:57;;;;;;;9.73;6.43;;;;;;;3.18;100.00;102978.84;2616095;36;20577;-60
2023/01/28 01:41:29;;;;;;;11.80;7.05;;;;;;;3.14;100.00;102988.69;2615989;36;20030;-60
2023/01/28 01:44:00;;;;;;;10.77;5.70;;;;;;;2.95;100.00;102993.53;2615679;36;20045;-60
2023/01/28 01:46:35;;;;;;;9.90;6.22;;;;;;;3.20;100.00;102992.13;2616208;36;20479;-59
2023/01/28 01:49:14;;;;;;;9.38;5.82;;;;;;;3.08;100.00;102988.81;2615644;36;20038;-59
2023/01/28 01:51:43;;;;;;;8.30;5.07;;;;;;;2.98;100.00;102992.59;2615649;36;20026;-60
2023/01/28 01:54:11;;;;;;;9.82;6.25;;;;;;;3.16;100.00;102988.63;2616568;36;20420;-60
2023/01/28 01:56:44;;;;;;;9.40;6.00;;;;;;;3.05;100.00;102988.00;2615790;36;20042;-60
2023/01/28 01:59:16;;;;;;;9.35;6.00;;;;;;;3.08;100.00;102998.59;2616252;31;20436;-60
2023/01/28 02:01:47;;;;;;;10.40;6.55;;;;;;;3.24;100.00;102993.78;2613137;36;20039;-60
2023/01/28 02:04:24;;;;;;;8.52;5.55;;;;;;;3.18;100.00;103001.91;2614956;36;20157;-60
2023/01/28 02:06:53;;;;;;;9.88;6.57;;;;;;;3.14;100.00;102998.47;2616015;36;20035;-60
2023/01/28 02:09:28;;;;;;;8.30;5.28;;;;;;;3.04;100.00;103008.41;2614841;36;20061;-60
2023/01/28 02:11:58;;;;;;;9.00;5.80;;;;;;;2.96;100.00;103005.06;2613543;36;20031;-60
2023/01/28 02:14:30;;;;;;;8.95;5.63;;;;;;;2.96;100.00;102989.13;2614140;36;20636;-60
2023/01/28 02:16:59;;;;;;;9.55;5.88;;;;;;;2.96;100.00;102999.75;2613390;36;20042;-60
2023/01/28 02:19:35;;;;;;;9.80;5.78;;;;;;;3.14;100.00;102998.47;2614696;36;20034;-61
2023/01/28 02:22:15;;;;;;;9.52;6.20;;;;;;;3.04;100.00;103010.22;2614337;31;20026;-61
2023/01/28 02:25:04;;;;;;;7.93;5.53;;;;;;;3.11;100.00;103009.16;2614452;36;20034;-61
2023/01/28 02:27:39;;;;;;;9.90;6.38;;;;;;;3.08;100.00;103007.44;2615569;36;20446;-60
2023/01/28 02:30:17;;;;;;;9.23;5.32;;;;;;;3.20;100.00;103003.63;2614899;36;20061;-60
2023/01/28 02:32:57;;;;;;;8.67;6.00;;;;;;;2.95;100.00;103004.19;2615150;36;20039;-60
2023/01/28 02:35:33;;;;;;;10.07;5.95;;;;;;;3.09;100.00;103003.88;2615622;36;20755;-60
2023/01/28 02:38:09;;;;;;;8.70;5.65;;;;;;;3.06;100.00;103013.72;2615692;36;20027;-60
2023/01/28 02:41:01;;;;;;;8.20;5.22;;;;;;;3.04;100.00;103012.88;2614990;36;20034;-60
2023/01/28 02:43:37;;;;;;;9.00;5.70;;;;;;;2.97;100.00;103010.34;2614925;36;20029;-60
2023/01/28 02:48:58;;;;;;;7.78;5.10;;;;;;;2.95;100.00;103013.94;2615536;36;20031;-60
2023/01/28 02:51:36;;;;;;;9.00;5.32;;;;;;;2.84;100.00;103007.97;2614947;36;20038;-60
2023/01/28 02:54:11;;;;;;;10.25;5.50;;;;;;;2.79;100.00;103003.63;2615592;36;20034;-61
2023/01/28 02:56:47;;;;;;;10.30;5.93;;;;;;;2.93;100.00;102999.78;2615440;31;20038;-60
2023/01/28 02:59:34;;;;;;;10.27;5.75;;;;;;;2.97;100.00;102996.16;2615589;36;20038;-60
2023/01/28 03:02:14;;;;;;;11.15;6.10;;;;;;;3.26;100.00;102994.63;2614245;36;20030;-60
2023/01/28 03:04:47;;;;;;;11.23;6.15;;;;;;;3.12;100.00;102994.94;2614296;31;20046;-60
2023/01/28 03:07:19;;;;;;;12.32;5.80;;;;;;;3.04;100.00;102997.78;2614033;36;20042;-60
2023/01/28 03:09:47;;;;;;;12.07;6.50;;;;;;;3.00;100.00;102996.09;2612709;36;20069;-61
2023/01/28 03:37:01;;;;;;;10.30;5.72;;;;;;;3.06;100.00;102990.66;2616150;36;20431;-59
2023/01/28 03:39:32;;;;;;;9.93;5.60;;;;;;;2.98;100.00;102984.63;2615730;36;20026;-59
2023/01/28 03:42:01;;;;;;;9.70;5.70;;;;;;;2.87;100.00;102991.94;2616424;36;20030;-59
2023/01/28 03:47:11;;;;;;;11.63;5.93;;;;;;;3.12;100.00;102995.84;2616580;36;20660;-60
2023/01/28 03:49:44;;;;;;;10.27;5.70;;;;;;;3.05;100.00;102995.97;2616503;36;20443;-61
2023/01/28 03:52:13;;;;;;;11.00;6.35;;;;;;;3.08;100.00;102991.47;2616486;31;20041;-60
2023/01/28 03:54:41;;;;;;;11.20;6.40;;;;;;;3.14;100.00;103001.97;2616833;36;20038;-61
2023/01/28 03:57:10;;;;;;;10.05;6.07;;;;;;;3.15;100.00;103010.81;2616757;36;20037;-60
2023/01/28 03:59:38;;;;;;;11.80;6.55;;;;;;;2.93;100.00;103008.66;2616164;36;20045;-60
2023/01/28 04:02:06;;;;;;;10.30;5.97;;;;;;;2.83;100.00;103003.56;2615205;31;20552;-60
2023/01/28 04:04:35;;;;;;;10.18;5.43;;;;;;;2.99;100.00;102997.03;2615379;31;20474;-61
2023/01/28 04:07:09;;;;;;;13.18;5.65;;;;;;;2.92;100.00;103003.38;2615108;36;20027;-59
2023/01/28 04:09:38;;;;;;;10.70;5.60;;;;;;;2.85;100.00;103004.41;2614939;31;20039;-60
2023/01/28 04:12:07;;;;;;;9.48;5.50;;;;;;;2.73;100.00;102998.44;2615189;31;20038;-60
2023/01/28 04:14:35;;;;;;;9.93;5.68;;;;;;;2.73;100.00;103009.09;2615910;36;20030;-60
2023/01/28 04:17:04;;;;;;;10.13;6.13;;;;;;;2.70;100.00;103018.91;2614727;36;20027;-60
2023/01/28 04:19:36;;;;;;;11.50;5.83;;;;;;;2.94;100.00;103017.50;2614516;36;20023;-59
2023/01/28 04:22:09;;;;;;;11.13;6.13;;;;;;;2.93;100.00;103023.72;2613281;36;20342;-60
2023/01/28 04:24:37;;;;;;;10.00;5.60;;;;;;;2.82;100.00;103025.78;2615705;36;20462;-60
2023/01/28 04:27:05;;;;;;;11.82;6.65;;;;;;;2.75;100.00;103027.66;2615712;31;20035;-60
2023/01/28 04:29:34;;;;;;;12.87;6.93;;;;;;;2.99;100.00;103020.97;2614435;36;20045;-60
2023/01/28 04:32:02;;;;;;;11.38;6.85;;;;;;;3.05;100.00;103019.94;2615418;36;20035;-60
2023/01/28 04:34:30;;;;;;;11.48;5.93;;;;;;;2.98;100.00;103020.06;2614109;36;20050;-61
2023/01/28 04:36:59;;;;;;;11.00;6.40;;;;;;;2.94;100.00;103030.81;2615958;36;20038;-64
2023/01/28 04:39:30;;;;;;;10.10;5.93;;;;;;;2.83;100.00;103030.16;2615571;36;20057;-62
2023/01/28 04:41:58;;;;;;;12.70;6.72;;;;;;;2.92;100.00;103036.16;2616228;36;20050;-62
2023/01/28 04:46:16;;;;;;;10.30;5.85;;;;;;;2.78;100.00;103028.50;2619990;36;20033;-65
2023/01/28 04:48:45;;;;;;;12.00;6.80;;;;;;;2.67;100.00;103019.84;2620344;31;20058;-62
2023/01/28 04:51:13;;;;;;;15.00;8.10;;;;;;;2.62;100.00;103016.41;2620209;36;20061;-62
2023/01/28 04:53:48;;;;;;;11.95;6.80;;;;;;;2.58;100.00;103004.97;2620697;36;20034;-63
2023/01/28 04:56:16;;;;;;;11.43;6.60;;;;;;;2.58;100.00;103006.75;2619693;36;20026;-63
2023/01/28 04:58:44;;;;;;;11.93;7.10;;;;;;;2.67;100.00;103003.91;2620352;36;20424;-62
2023/01/28 05:01:15;;;;;;;12.27;7.07;;;;;;;2.74;100.00;103012.59;2620511;36;20455;-63
2023/01/28 05:03:43;;;;;;;12.80;6.05;;;;;;;2.79;100.00;103011.59;2619408;36;20034;-62
2023/01/28 05:06:12;;;;;;;12.30;7.18;;;;;;;2.84;100.00;103015.97;2620258;31;20621;-61
2023/01/28 05:08:40;;;;;;;10.57;6.65;;;;;;;2.84;100.00;103007.97;2619533;36;20038;-63
2023/01/28 05:11:09;;;;;;;11.23;6.00;;;;;;;2.82;100.00;103010.69;2618283;36;20034;-61
2023/01/28 05:13:37;;;;;;;11.15;6.68;;;;;;;2.80;100.00;103001.88;2617710;36;20030;-62
2023/01/28 05:16:07;;;;;;;11.75;6.32;;;;;;;2.87;100.00;103000.84;2617857;31;20038;-65
2023/01/28 05:18:38;;;;;;;11.48;6.70;;;;;;;2.85;100.00;103007.09;2618331;36;20038;-62
2023/01/28 05:21:07;;;;;;;11.73;6.75;;;;;;;2.93;100.00;103008.66;2619082;36;20031;-65
2023/01/28 05:23:35;;;;;;;10.70;6.82;;;;;;;2.92;100.00;103016.69;2619450;36;20044;-59
2023/01/28 05:26:04;;;;;;;12.57;6.10;;;;;;;2.99;100.00;103020.97;2617524;36;20543;-62
2023/01/28 05:28:32;;;;;;;10.32;5.82;;;;;;;2.97;100.00;103020.09;2618276;36;20041;-64
2023/01/28 05:31:05;;;;;;;11.10;6.90;;;;;;;2.93;100.00;103021.97;2618984;36;20026;-63
2023/01/28 05:33:33;;;;;;;11.00;5.72;;;;;;;2.93;100.00;103026.41;2618778;36;20045;-63
2023/01/28 05:36:05;;;;;;;11.17;6.30;;;;;;;2.87;100.00;103018.56;2618921;36;20026;-62
2023/01/28 05:38:33;;;;;;;10.50;6.50;;;;;;;2.68;100.00;103018.06;2618497;36;20271;-62
2023/01/28 05:41:02;;;;;;;10.77;6.55;;;;;;;2.46;100.00;103010.53;2619024;36;20057;-63
2023/01/28 05:43:30;;;;;;;13.32;7.03;;;;;;;2.48;100.00;103023.81;2618632;36;20034;-61
2023/01/28 05:45:58;;;;;;;12.48;6.28;;;;;;;2.43;100.00;103010.59;2618863;36;20033;-62
2023/01/28 05:48:27;;;;;;;10.88;6.05;;;;;;;2.57;100.00;103005.88;2618409;36;20038;-61
2023/01/28 05:50:55;;;;;;;12.95;6.75;;;;;;;2.64;100.00;103006.63;2619315;36;20049;-61
2023/01/28 05:53:26;;;;;;;10.90;5.97;;;;;;;2.52;100.00;103014.84;2618790;36;20061;-62
2023/01/28 05:55:55;;;;;;;11.68;6.38;;;;;;;2.44;100.00;103015.00;2618448;36;20439;-63
2023/01/28 05:58:25;;;;;;;10.35;5.88;;;;;;;2.48;100.00;103007.84;2614718;36;20038;-62
2023/01/28 06:00:56;;;;;;;11.45;6.25;;;;;;;2.50;100.00;103006.03;2614395;36;20191;-63
2023/01/28 06:03:24;;;;;;;12.82;6.65;;;;;;;2.54;100.00;103013.91;2614145;36;20034;-64
2023/01/28 06:05:53;;;;;;;11.70;6.27;;;;;;;2.42;100.00;103019.47;2615121;36;20038;-62
2023/01/28 06:08:21;;;;;;;11.63;6.20;;;;;;;2.47;100.00;103011.41;2613861;36;20034;-61
2023/01/28 06:10:52;;;;;;;12.05;6.25;;;;;;;2.59;100.00;103016.47;2614697;36;20038;-63
2023/01/28 06:13:20;;;;;;;12.35;6.50;;;;;;;2.64;100.00;103014.59;2614315;36;20041;-64
2023/01/28 06:15:50;;;;;;;11.55;6.68;;;;;;;2.77;100.00;103021.41;2613340;36;20037;-62
2023/01/28 06:18:19;;;;;;;11.73;5.95;;;;;;;2.73;100.00;103011.75;2613459;36;20043;-64
2023/01/28 06:20:47;;;;;;;10.82;6.57;;;;;;;2.62;100.00;103006.66;2613757;36;20432;-62
2023/01/28 06:23:15;;;;;;;10.13;5.85;;;;;;;2.63;100.00;103007.53;2615028;36;20041;-61
2023/01/28 06:25:44;;;;;;;11.50;6.28;;;;;;;2.64;100.00;103014.59;2614917;36;20427;-64
2023/01/28 06:28:15;;;;;;;12.10;6.50;;;;;;;2.71;100.00;103021.56;2613252;36;20042;-64
2023/01/28 06:32:56;;;;;;;11.30;6.32;;;;;;;2.42;100.00;103015.03;2618622;36;20188;-64
2023/01/28 06:35:24;;;;;;;14.32;6.97;;;;;;;2.38;100.00;103015.13;2617151;36;20034;-66
2023/01/28 06:37:53;;;;;;;11.03;6.53;;;;;;;2.47;100.00;103022.91;2618691;36;20057;-64
2023/01/28 06:40:23;;;;;;;12.30;6.80;;;;;;;2.37;100.00;103027.53;2617269;36;20027;-60
2023/01/28 06:42:52;;;;;;;11.88;6.60;;;;;;;2.29;100.00;103024.16;2619273;36;20045;-61
2023/01/28 06:45:20;;;;;;;11.32;6.25;;;;;;;2.31;100.00;103030.28;2618269;36;20034;-60
2023/01/28 06:47:48;;;;;;;11.40;6.25;;;;;;;2.42;100.00;103035.44;2618957;36;20042;-60
2023/01/28 06:50:19;;;;;;;12.23;5.88;;;;;;;2.52;100.00;103044.06;2618031;36;20030;-60
2023/01/28 06:52:48;;;;;;;11.45;6.40;;;;;;;2.59;100.00;103054.59;2620243;36;20042;-59
2023/01/28 06:55:16;;;;;;;11.50;6.18;;;;;;;2.65;100.00;103061.56;2618172;36;20023;-60
2023/01/28 06:57:45;;;;;;;11.63;6.47;;;;;;;2.48;100.00;103053.03;2618918;36;20034;-60
2023/01/28 07:00:15;;;;;;;11.85;6.15;;;;;;;2.40;100.00;103048.75;2617314;36;20061;-60
2023/01/28 07:02:43;;;;;;;11.75;6.32;;;;;;;2.31;100.00;103042.72;2617399;36;20034;-60
2023/01/28 07:05:13;;;;;;;13.98;6.97;;;;;;;2.41;100.00;103045.16;2618092;36;20729;-60
2023/01/28 07:07:45;;;;;;;10.30;6.40;;;;;;;2.43;100.00;103038.03;2618471;36;20442;-59
2023/01/28 07:10:13;;;;;;;12.55;6.75;;;;;;;2.52;100.00;103041.41;2617600;36;20530;-60
2023/01/28 07:12:42;;;;;;;12.27;6.60;;;;;;;2.44;100.00;103045.13;2618316;36;20038;-62
2023/01/28 07:15:13;;;;;;;11.57;6.23;;;;;;;2.48;100.00;103039.75;2618482;36;20042;-62
2023/01/28 07:17:42;;;;;;;10.55;6.22;;;;;;;2.49;100.00;103045.03;2617390;36;20426;-63
2023/01/28 07:20:13;;;;;;;12.47;6.70;;;;;;;2.54;100.00;103052.91;2615927;36;20133;-60
2023/01/28 07:22:45;;;;;;;10.95;6.57;;;;;;;2.56;100.00;103049.31;2619277;36;20295;-60
2023/01/28 07:25:16;;;;;;;14.65;7.68;;;;;;;2.60;100.00;103042.16;2617404;36;20038;-60
2023/01/28 07:27:50;;;;;;;10.55;6.40;;;;;;;2.75;100.00;103056.91;2618898;31;20058;-61
2023/01/28 07:30:20;;;;;;;10.50;6.38;;;;;;;2.68;100.00;103052.63;2619301;36;20090;-60
2023/01/28 07:32:49;;;;;;;9.07;5.55;;;;;;;2.68;100.00;103053.53;2618432;36;20061;-60
2023/01/28 07:35:17;;;;;;;11.57;6.88;;;;;;;2.68;100.00;103053.53;2617858;36;20037;-60
2023/01/28 07:37:53;;;;;;;11.73;6.80;;;;;;;2.70;100.00;103062.34;2619563;36;20037;-60
2023/01/28 07:40:28;;;;;;;10.82;6.60;;;;;;;2.70;100.00;103061.47;2619388;36;20543;-61
2023/01/28 07:42:56;;;;;;;10.45;6.03;;;;;;;2.71;100.00;103063.19;2616625;36;20049;-60
2023/01/28 07:45:27;;;;;;;12.15;6.20;;;;;;;2.62;100.00;103054.50;2613290;36;20034;-60
2023/01/28 07:47:57;;;;;;;12.02;6.13;;;;;;;2.55;100.00;103057.34;2614318;36;20035;-60
2023/01/28 07:50:26;;;;;;;11.20;6.35;;;;;;;2.65;100.00;103069.53;2614722;36;20039;-60
2023/01/28 07:52:57;;;;;;;11.20;6.53;;;;;;;2.75;100.00;103063.13;2615175;36;20442;-60
2023/01/28 07:55:26;;;;;;;10.30;5.53;;;;;;;2.82;100.00;103068.31;2614154;36;20037;-60
2023/01/28 07:57:56;;;;;;;10.75;6.10;;;;;;;2.85;100.00;103070.91;2615766;36;20034;-60
2023/01/28 08:00:25;;;;;;;12.10;6.78;;;;;;;3.03;100.00;103067.00;2614040;36;20042;-60
2023/01/28 08:02:58;;;;;;;10.55;5.65;;;;;;;2.86;100.00;103070.03;2616483;36;20049;-60
2023/01/28 08:05:28;;;;;;;12.43;7.10;;;;;;;2.88;100.00;103071.72;2614813;36;20546;-60
2023/01/28 08:07:59;;;;;;;12.57;6.97;;;;;;;2.95;100.00;103068.03;2614573;36;20035;-60
2023/01/28 08:10:28;;;;;;;11.65;6.85;;;;;;;2.91;100.00;103076.09;2615095;36;20447;-60
2023/01/28 08:12:58;;;;;;;11.48;6.15;;;;;;;2.92;100.00;103077.88;2616326;36;20027;-60
2023/01/28 08:15:27;;;;;;;10.73;6.22;;;;;;;2.96;100.00;103085.75;2614697;36;20027;-60
2023/01/28 08:17:56;;;;;;;12.15;6.97;;;;;;;3.00;100.00;103081.22;2615273;36;20038;-60
2023/01/28 08:20:24;;;;;;;12.32;6.60;;;;;;;2.96;100.00;103080.41;2614700;36;20046;-60
2023/01/28 08:22:53;;;;;;;12.27;6.80;;;;;;;2.72;100.00;103081.78;2614757;36;20045;-60
2023/01/28 08:25:24;;;;;;;13.23;6.82;;;;;;;2.71;100.00;103088.03;2615388;36;20041;-60
2023/01/28 08:27:52;;;;;;;13.23;6.82;;;;;;;2.85;100.00;103092.19;2615013;36;20039;-60
2023/01/28 08:30:21;;;;;;;10.10;6.13;;;;;;;3.00;100.00;103086.53;2615341;36;20022;-61
2023/01/28 08:32:49;;;;;;;12.20;6.40;;;;;;;3.13;100.00;103081.84;2615382;36;20058;-60
2023/01/28 08:35:17;;;;;;;12.10;6.72;;;;;;;3.29;100.00;103091.25;2615528;36;20034;-60
2023/01/28 08:37:46;;;;;;;10.07;6.03;;;;;;;3.32;100.00;103092.97;2615819;31;20034;-61
2023/01/28 08:40:15;;;;;;;10.73;6.35;;;;;;;3.51;100.00;103102.28;2613883;36;20031;-60
2023/01/28 08:42:51;;;;;;;9.82;5.40;;;;;;;3.33;100.00;103102.72;2616213;31;20058;-59
2023/01/28 08:45:21;;;;;;;8.65;5.30;;;;;;;3.25;100.00;103107.31;2615580;36;20042;-60
2023/01/28 08:47:50;;;;;;;12.13;6.22;;;;;;;3.03;100.00;103115.75;2615122;31;20038;-60
2023/01/28 08:50:19;;;;;;;8.68;5.13;;;;;;;3.23;100.00;103109.16;2613335;36;20431;-60
2023/01/28 08:52:48;;;;;;;10.80;6.00;;;;;;;3.30;100.00;103114.28;2614602;36;20126;-59
2023/01/28 08:55:17;;;;;;;9.43;5.53;;;;;;;3.38;100.00;103124.75;2614394;36;20038;-60
2023/01/28 08:57:46;;;;;;;10.40;5.75;;;;;;;3.61;100.00;103115.41;2616347;36;20026;-60
2023/01/28 09:00:18;;;;;;;9.68;5.85;;;;;;;3.38;100.00;103107.94;2615758;36;20034;-60
2023/01/28 09:02:46;;;;;;;10.77;5.80;;;;;;;3.04;100.00;103106.84;2616545;36;20041;-60
2023/01/28 09:05:15;;;;;;;10.98;6.53;;;;;;;3.10;100.00;103120.03;2615187;36;20045;-60
2023/01/28 09:07:43;;;;;;;;;;;;;;;3.27;100.00;103127.66;2616178;36;20038;-60
2023/01/28 09:10:13;;;;;;;11.60;6.45;;;;;;;3.36;100.00;103123.03;2615836;36;19950;-60
2023/01/28 09:12:41;;;;;;;9.57;5.72;;;;;;;3.39;100.00;103126.53;2616057;36;20038;-61
2023/01/28 09:15:12;;;;;;;9.63;5.43;;;;;;;3.63;100.00;103127.75;2615556;36;20034;-59
2023/01/28 09:17:43;;;;;;;10.00;5.40;;;;;;;3.41;100.00;103130.03;2616968;31;20033;-59
2023/01/28 09:20:13;;;;;;;9.35;5.60;;;;;;;3.42;100.00;103137.09;2615486;31;20026;-59
2023/01/28 09:22:44;;;;;;;10.20;5.75;;;;;;;3.25;100.00;103124.16;2615879;36;20125;-60
2023/01/28 09:25:12;;;;;;;10.48;6.40;;;;;;;3.43;100.00;103120.22;2616354;36;20034;-60
2023/01/28 09:27:41;;;;;;;8.82;5.28;;;;;;;3.62;100.00;103139.34;2616663;36;20026;-60
2023/01/28 09:30:12;;;;;;;10.50;6.33;;;;;;;3.47;100.00;103145.84;2615064;36;20045;-60
2023/01/28 09:32:43;;;;;;;11.25;5.82;;;;;;;3.24;100.00;103142.81;2616184;36;20033;-60
2023/01/28 09:35:14;;;;;;;11.93;5.95;;;;;;;3.26;100.00;103135.69;2615281;31;20061;-60
2023/01/28 09:37:42;;;;;;;12.07;6.85;;;;;;;3.03;100.00;103138.81;2615609;36;20035;-60
2023/01/28 09:40:16;;;;;;;12.43;6.75;;;;;;;3.11;100.00;103139.56;2614800;31;20041;-60
2023/01/28 09:43:00;;;;;;;11.45;6.35;;;;;;;2.89;100.00;103133.78;2615983;36;20038;-60
2023/01/28 09:45:36;;;;;;;13.73;7.40;;;;;;;2.94;100.00;103130.09;2615252;31;20033;-60
2023/01/28 09:48:12;;;;;;;12.85;7.03;;;;;;;2.96;100.00;103128.31;2615123;36;20031;-60
2023/01/28 09:50:43;;;;;;;13.70;7.07;;;;;;;2.72;100.00;103145.59;2615370;36;20038;-59
2023/01/28 09:53:17;;;;;;;13.07;6.95;;;;;;;2.95;100.00;103142.50;2615982;36;20026;-60
2023/01/28 09:55:49;;;;;;;13.05;6.85;;;;;;;2.96;100.00;103151.38;2616109;36;20038;-60
2023/01/28 09:58:18;;;;;;;11.43;6.53;;;;;;;2.97;100.00;103151.34;2616128;31;20041;-60
2023/01/28 10:00:54;;;;;;;12.30;6.65;;;;;;;2.93;100.00;103156.72;2614696;36;20027;-59
2023/01/28 10:03:44;;;;;;;11.40;6.57;;;;;;;3.01;100.00;103162.78;2615449;36;20150;-59
2023/01/28 10:06:23;;;;;;;14.27;7.18;;;;;;;3.20;100.00;103159.78;2614475;36;20039;-59
2023/01/28 10:09:12;;;;;;;13.15;6.80;;;;;;;3.36;100.00;103154.97;2614372;36;20034;-59
2023/01/28 10:11:56;;;;;;;10.40;5.47;;;;;;;3.63;100.00;103158.84;2615654;36;20031;-59
2023/01/28 10:14:34;;;;;;;9.63;5.32;;;;;;;3.61;100.00;103148.22;2614136;36;20034;-60
2023/01/28 10:17:11;;;;;;;12.38;5.82;;;;;;;3.68;100.00;103143.63;2614672;36;20053;-60
2023/01/28 10:19:49;;;;;;;10.48;5.80;;;;;;;3.53;100.00;103146.66;2616505;36;20030;-60
2023/01/28 10:22:22;;;;;;;12.05;5.97;;;;;;;3.57;100.00;103145.66;2615082;36;20049;-60
2023/01/28 10:24:57;;;;;;;10.90;5.78;;;;;;;3.50;100.00;103139.59;2616171;36;20058;-60
2023/01/28 10:27:29;;;;;;;9.95;5.20;;;;;;;3.61;100.00;103139.38;2616204;36;20033;-60
2023/01/28 10:30:00;;;;;;;9.35;5.53;;;;;;;3.78;100.00;103145.16;2614754;36;20038;-60
2023/01/28 10:32:32;;;;;;;10.05;4.78;;;;;;;3.72;100.00;103141.78;2615567;36;20499;-60
2023/01/28 10:35:04;;;;;;;9.32;5.50;;;;;;;3.73;100.00;103140.88;2614436;36;20049;-60
2023/01/28 10:37:37;;;;;;;8.75;5.30;;;;;;;3.50;100.00;103132.50;2614215;36;20043;-60
2023/01/28 10:40:06;;;;;;;9.05;4.85;;;;;;;3.49;100.00;103137.88;2614247;36;20037;-60
2023/01/28 10:42:36;;;;;;;10.75;4.65;;;;;;;3.54;100.00;103135.09;2615929;36;20534;-60
2023/01/28 10:45:09;;;;;;;8.65;4.63;;;;;;;3.46;100.00;103136.13;2615300;36;20026;-60
2023/01/28 10:47:44;;;;;;;10.38;5.28;;;;;;;3.63;100.00;103124.22;2616057;36;20035;-60
2023/01/28 10:50:19;;;;;;;12.60;5.00;;;;;;;3.58;100.00;103120.78;2616033;36;20041;-61
2023/01/28 10:52:58;;;;;;;8.82;4.78;;;;;;;3.72;100.00;103112.47;2616402;36;20490;-60
2023/01/28 10:55:31;;;;;;;8.65;4.75;;;;;;;3.67;100.00;103100.16;2615608;36;20025;-60
2023/01/28 10:58:00;;;;;;;8.05;5.00;;;;;;;3.97;100.00;103094.97;2614677;36;20030;-61
2023/01/28 11:00:33;;;;;;;8.73;5.00;;;;;;;3.86;100.00;103084.59;2614321;36;20535;-64
2023/01/28 11:03:01;;;;;;;11.02;4.80;;;;;;;3.78;100.00;103081.22;2614615;36;20034;-60
2023/01/28 11:05:33;;;;;;;8.52;4.82;;;;;;;4.02;100.00;103076.25;2613591;36;20038;-61
2023/01/28 11:08:07;;;;;;;8.55;4.72;;;;;;;3.95;100.00;103063.97;2612226;36;21755;-64
2023/01/28 11:10:39;;;;;;;9.00;4.55;;;;;;;3.92;100.00;103056.06;2612642;36;20547;-67
2023/01/28 11:13:16;;;;;;;9.27;4.60;;;;;;;3.98;100.00;103051.44;2613748;36;20034;-66
2023/01/28 11:15:49;;;;;;;6.97;4.05;;;;;;;3.92;100.00;103046.28;2614388;36;20031;-60
2023/01/28 11:18:23;;;;;;;8.55;4.22;;;;;;;3.88;100.00;103041.06;2614243;36;20594;-59
2023/01/28 11:20:57;;;;;;;11.85;4.72;;;;;;;4.11;100.00;103045.78;2615125;36;20042;-65
2023/01/28 11:23:27;;;;;;;7.82;3.97;;;;;;;4.11;100.00;103033.34;2614698;36;20038;-65
2023/01/28 11:26:08;;;;;;;5.45;3.35;;;;;;;4.02;100.00;103025.59;2614052;36;20034;-62
2023/01/28 11:28:42;;;;;;;6.43;3.70;;;;;;;4.27;100.00;103015.16;2613524;36;20520;-61
2023/01/28 11:31:13;;;;;;;6.75;3.80;;;;;;;4.35;100.00;103014.94;2611290;31;20134;-62
2023/01/28 11:33:47;;;;;;;6.38;3.85;;;;;;;4.14;100.00;103003.94;2612755;36;20038;-62
2023/01/28 11:36:20;;;;;;;7.28;4.15;;;;;;;3.99;100.00;103004.34;2612769;36;20030;-63
2023/01/28 11:38:51;;;;;;;6.50;3.58;;;;;;;4.23;100.00;103007.28;2613677;36;20039;-63
2023/01/28 11:41:24;;;;;;;7.18;3.75;;;;;;;4.31;100.00;103006.13;2614827;36;20046;-60
2023/01/28 11:43:53;;;;;;;7.60;4.18;;;;;;;4.48;100.00;103011.00;2613961;36;20035;-61
2023/01/28 11:46:46;;;;;;;7.13;3.70;;;;;;;4.42;100.00;103016.53;2613242;36;20534;-63
2023/01/28 11:49:26;;;;;;;7.20;3.38;;;;;;;4.60;100.00;103031.13;2613373;36;20653;-61
2023/01/28 11:52:00;;;;;;;;;;;;;;;4.33;100.00;103035.44;2613682;36;21703;-59
2023/01/28 11:54:42;;;;;;;10.25;4.35;;;;;;;4.29;100.00;103033.78;2616579;31;20441;-59
2023/01/28 11:57:23;;;;;;;8.07;3.80;;;;;;;4.42;100.00;103039.63;2616085;36;20038;-63
2023/01/28 12:00:11;;;;;;;9.27;4.20;;;;;;;4.50;100.00;103038.50;2615533;36;20434;-61
2023/01/28 12:02:50;;;;;;;7.10;3.92;;;;;;;4.85;100.00;103041.09;2614944;36;20026;-63
2023/01/28 12:05:33;;;;;;;5.13;2.90;;;;;;;4.78;100.00;103047.53;2614839;36;20034;-61
2023/01/28 12:08:10;;;;;;;6.53;3.35;;;;;;;4.92;100.00;103045.31;2615056;36;20030;-61
2023/01/28 12:10:49;;;;;;;3.72;2.30;;;;;;;5.20;100.00;103042.69;2614927;36;20042;-61
2023/01/28 12:13:33;;;;;;;3.15;1.92;;;;;;;5.19;100.00;103054.28;2616141;31;20039;-62